Time;durP1;ratioP1;P1;durP2;ratioP2;P2;SDS_P1;SDS_P2;PMS_P1;PMS_P2;Temp;Humidity;BMP_temperature;BMP_pressure;BME280_temperature;BME280_humidity;BME280_pressure;Samples;Min_cycle;Max_cycle;Signal;HPM_P1;HPM_P2
2023/03/15 00:00:06;;;;;;;3.83;1.73;;;2.30;99.90;;;;;;4986063;28;20695;-62
2023/03/15 00:02:32;;;;;;;8.40;2.07;;;2.30;99.90;;;;;;4986113;28;20224;-63
2023/03/15 00:04:57;;;;;;;8.27;1.83;;;2.20;99.90;;;;;;4983778;28;20211;-64
2023/03/15 00:07:24;;;;;;;6.50;1.60;;;2.20;99.90;;;;;;4986286;28;20257;-62
2023/03/15 00:09:51;;;;;;;11.07;1.37;;;2.20;99.90;;;;;;4986505;28;20214;-63
2023/03/15 00:12:17;;;;;;;8.27;1.60;;;2.20;99.90;;;;;;4986395;28;20723;-63
2023/03/15 00:14:42;;;;;;;6.17;1.40;;;2.10;99.90;;;;;;4988258;28;20281;-63
2023/03/15 00:17:08;;;;;;;4.77;1.40;;;2.10;99.90;;;;;;4995115;28;20214;-63
2023/03/15 00:19:33;;;;;;;12.07;1.60;;;2.20;99.90;;;;;;4992640;28;20209;-63
2023/03/15 00:21:59;;;;;;;2.63;1.23;;;2.20;99.90;;;;;;4994041;28;20845;-63
2023/03/15 00:24:24;;;;;;;5.40;1.43;;;2.20;99.90;;;;;;4995487;28;20211;-62
2023/03/15 00:26:50;;;;;;;4.47;2.00;;;2.20;99.90;;;;;;4995434;28;20531;-63
2023/03/15 00:29:15;;;;;;;5.07;2.00;;;2.20;99.90;;;;;;4995404;28;20544;-63
2023/03/15 00:31:41;;;;;;;5.73;1.60;;;2.30;99.90;;;;;;4994598;28;20226;-63
2023/03/15 00:34:06;;;;;;;5.37;1.87;;;2.20;99.90;;;;;;4995058;28;20223;-64
2023/03/15 00:36:32;;;;;;;3.70;1.27;;;2.10;99.90;;;;;;4995023;28;20242;-64
2023/03/15 00:38:57;;;;;;;5.97;1.63;;;2.20;99.90;;;;;;4995258;28;20624;-64
2023/03/15 00:41:23;;;;;;;5.03;1.53;;;2.10;99.90;;;;;;4995258;28;20206;-63
2023/03/15 00:43:49;;;;;;;4.83;1.73;;;2.10;99.90;;;;;;4987258;28;20233;-63
2023/03/15 00:46:16;;;;;;;8.87;1.63;;;2.10;99.90;;;;;;4985590;28;20215;-64
2023/03/15 00:48:42;;;;;;;6.93;1.87;;;2.10;99.90;;;;;;4985600;28;20590;-64
2023/03/15 00:51:13;;;;;;;5.17;1.30;;;2.00;99.90;;;;;;4984848;28;20264;-64
2023/03/15 00:53:41;;;;;;;3.67;1.57;;;2.00;99.90;;;;;;4985364;28;20211;-62
2023/03/15 00:56:10;;;;;;;6.70;1.70;;;2.00;99.90;;;;;;4983137;28;20211;-65
2023/03/15 00:58:36;;;;;;;2.97;1.20;;;1.90;99.90;;;;;;4987299;28;20223;-64
2023/03/15 01:01:10;;;;;;;7.40;1.87;;;2.00;99.90;;;;;;4992048;28;20287;-64
2023/03/15 01:03:35;;;;;;;5.53;2.27;;;1.90;99.90;;;;;;4992369;28;20205;-64
2023/03/15 01:06:09;;;;;;;7.93;2.10;;;1.90;99.90;;;;;;4990093;28;20352;-64
2023/03/15 01:08:35;;;;;;;7.67;1.97;;;1.90;99.90;;;;;;4992029;28;20234;-63
2023/03/15 01:11:05;;;;;;;6.73;1.57;;;1.90;99.90;;;;;;4990946;28;20844;-64
2023/03/15 01:13:31;;;;;;;7.27;2.40;;;1.90;99.90;;;;;;4992567;28;20203;-64
2023/03/15 01:15:56;;;;;;;8.37;1.33;;;1.90;99.90;;;;;;4990251;28;20217;-64
2023/03/15 01:18:22;;;;;;;10.27;1.93;;;1.80;99.90;;;;;;4991673;28;20208;-63
2023/03/15 01:20:47;;;;;;;5.90;1.87;;;1.80;99.90;;;;;;4992473;28;20567;-63
2023/03/15 01:23:13;;;;;;;2.57;1.57;;;1.80;99.90;;;;;;4991804;28;20800;-63
2023/03/15 01:25:39;;;;;;;5.67;1.50;;;1.80;99.90;;;;;;4991791;28;20345;-61
2023/03/15 01:28:04;;;;;;;2.57;0.97;;;1.80;99.90;;;;;;4990580;28;20242;-63
2023/03/15 01:30:31;;;;;;;7.10;0.93;;;1.80;99.90;;;;;;4992324;28;20222;-63
2023/03/15 01:32:57;;;;;;;7.60;2.20;;;1.80;99.90;;;;;;4996412;28;20248;-62
2023/03/15 01:35:22;;;;;;;8.80;2.00;;;1.80;99.90;;;;;;4993564;28;20212;-62
2023/03/15 01:37:49;;;;;;;3.30;1.67;;;1.80;99.90;;;;;;4991718;28;20669;-62
2023/03/15 01:40:15;;;;;;;5.47;1.63;;;1.80;99.90;;;;;;4989962;28;20306;-63
2023/03/15 01:43:03;;;;;;;1.87;1.10;;;1.70;99.90;;;;;;4990998;28;20289;-62
2023/03/15 01:45:53;;;;;;;5.20;1.23;;;1.70;99.90;;;;;;4989933;28;20209;-63
2023/03/15 01:48:21;;;;;;;5.33;1.40;;;1.60;99.90;;;;;;4989512;28;20738;-63
2023/03/15 01:50:48;;;;;;;3.47;1.20;;;1.60;99.90;;;;;;4991557;28;20202;-64
2023/03/15 01:53:14;;;;;;;5.13;1.70;;;1.60;99.90;;;;;;4975612;28;20208;-64
2023/03/15 01:55:40;;;;;;;10.00;1.57;;;1.60;99.90;;;;;;4982029;28;20222;-63
2023/03/15 01:58:07;;;;;;;8.73;1.60;;;1.60;99.90;;;;;;4980814;28;20208;-64
2023/03/15 02:00:32;;;;;;;6.67;1.57;;;1.60;99.90;;;;;;4964476;28;20529;-63
2023/03/15 02:03:02;;;;;;;6.10;1.67;;;1.60;99.90;;;;;;4984859;28;20230;-63
2023/03/15 02:05:32;;;;;;;5.87;1.37;;;1.60;99.90;;;;;;4981896;28;20398;-63
2023/03/15 02:07:59;;;;;;;6.50;2.20;;;1.60;99.90;;;;;;4981080;28;20707;-64
2023/03/15 02:10:42;;;;;;;5.60;1.53;;;1.60;99.90;;;;;;4986540;28;20222;-64
2023/03/15 02:13:08;;;;;;;7.93;2.13;;;1.50;99.90;;;;;;4986191;28;20194;-66
2023/03/15 02:15:34;;;;;;;2.17;1.30;;;1.60;99.90;;;;;;4988013;28;20221;-66
2023/03/15 02:17:59;;;;;;;6.93;1.37;;;1.50;99.90;;;;;;4988467;28;20667;-64
2023/03/15 02:20:59;;;;;;;2.77;1.47;;;1.50;99.90;;;;;;4987406;28;20237;-63
2023/03/15 02:23:26;;;;;;;8.10;1.87;;;1.40;99.90;;;;;;4988894;28;20294;-63
2023/03/15 02:26:17;;;;;;;6.70;2.07;;;1.40;99.90;;;;;;4987754;28;20218;-63
2023/03/15 02:28:44;;;;;;;5.80;1.53;;;1.40;99.90;;;;;;4988465;28;20645;-63
2023/03/15 02:31:09;;;;;;;7.83;1.53;;;1.40;99.90;;;;;;4986334;28;20217;-64
2023/03/15 02:33:47;;;;;;;6.93;2.13;;;1.40;99.90;;;;;;4961463;28;20249;-63
2023/03/15 02:36:23;;;;;;;4.13;1.57;;;1.30;99.90;;;;;;4968775;28;20233;-63
2023/03/15 02:38:49;;;;;;;4.77;1.40;;;1.30;99.90;;;;;;4968623;28;20208;-64
2023/03/15 02:41:20;;;;;;;2.77;2.03;;;1.30;99.90;;;;;;4968078;28;20321;-64
2023/03/15 02:43:48;;;;;;;6.13;1.77;;;1.20;99.90;;;;;;4968115;28;20283;-63
2023/03/15 02:46:15;;;;;;;3.43;1.10;;;1.20;99.90;;;;;;4967617;28;20227;-63
2023/03/15 02:48:41;;;;;;;7.10;1.70;;;1.30;99.90;;;;;;4967347;28;20214;-63
2023/03/15 02:51:15;;;;;;;4.77;1.60;;;1.30;99.90;;;;;;4967921;28;20199;-63
2023/03/15 02:53:40;;;;;;;6.73;1.37;;;1.20;99.90;;;;;;4974600;28;20691;-63
2023/03/15 02:56:06;;;;;;;4.33;2.30;;;1.20;99.90;;;;;;4968189;28;20296;-64
2023/03/15 02:58:32;;;;;;;4.57;1.50;;;1.20;99.90;;;;;;4968018;28;20297;-64
2023/03/15 03:00:57;;;;;;;9.30;1.83;;;1.20;99.90;;;;;;4967517;28;20205;-64
2023/03/15 03:03:23;;;;;;;10.53;1.80;;;1.20;99.90;;;;;;4967200;28;20665;-63
2023/03/15 03:05:48;;;;;;;5.90;2.27;;;1.20;99.90;;;;;;4967526;28;20208;-63
2023/03/15 03:08:15;;;;;;;4.00;1.30;;;1.20;99.90;;;;;;4967057;28;20254;-62
2023/03/15 03:10:41;;;;;;;4.43;1.60;;;1.30;99.90;;;;;;4966274;28;20274;-64
2023/03/15 03:13:06;;;;;;;6.77;2.40;;;1.30;99.90;;;;;;4967289;28;20227;-65
2023/03/15 03:15:32;;;;;;;8.43;2.17;;;1.20;99.90;;;;;;4967959;28;20217;-63
2023/03/15 03:17:57;;;;;;;3.70;1.53;;;1.30;99.90;;;;;;4967319;28;20214;-64
2023/03/15 03:20:23;;;;;;;5.00;1.67;;;1.30;99.90;;;;;;4963788;28;20233;-64
2023/03/15 03:22:48;;;;;;;11.53;1.97;;;1.30;99.90;;;;;;4967545;28;20257;-64
2023/03/15 03:25:14;;;;;;;4.00;1.80;;;1.30;99.90;;;;;;4971791;28;20214;-63
2023/03/15 03:27:40;;;;;;;15.53;2.57;;;1.30;99.90;;;;;;4972389;28;20206;-63
2023/03/15 03:30:09;;;;;;;7.73;1.70;;;1.40;99.90;;;;;;4966954;28;20655;-63
2023/03/15 03:32:35;;;;;;;5.50;2.07;;;1.40;99.90;;;;;;4972962;28;20239;-63
2023/03/15 03:35:00;;;;;;;8.50;2.47;;;1.50;99.90;;;;;;4986602;28;20208;-63
2023/03/15 03:37:26;;;;;;;6.33;1.40;;;1.50;99.90;;;;;;4980256;28;20322;-63
2023/03/15 03:39:51;;;;;;;5.37;2.47;;;1.50;99.90;;;;;;4977331;28;20212;-63
2023/03/15 03:42:17;;;;;;;6.17;1.70;;;1.50;99.90;;;;;;4977911;28;20218;-63
2023/03/15 03:44:42;;;;;;;6.97;1.87;;;1.50;99.90;;;;;;4975133;28;20222;-63
2023/03/15 03:47:08;;;;;;;8.73;2.07;;;1.40;99.90;;;;;;4978122;28;20746;-63
2023/03/15 03:49:34;;;;;;;11.63;2.20;;;1.40;99.90;;;;;;4976575;28;20589;-63
2023/03/15 03:52:00;;;;;;;7.93;1.70;;;1.30;99.90;;;;;;4976728;28;20229;-62
2023/03/15 03:54:26;;;;;;;6.63;2.67;;;1.20;99.90;;;;;;4976178;28;20211;-63
2023/03/15 03:56:51;;;;;;;8.43;2.30;;;1.20;99.90;;;;;;4995178;28;20226;-63
2023/03/15 03:59:17;;;;;;;4.73;1.67;;;1.10;99.90;;;;;;4996025;28;20218;-62
2023/03/15 04:01:43;;;;;;;10.13;1.77;;;1.10;99.90;;;;;;4996092;28;20200;-62
2023/03/15 04:04:08;;;;;;;6.33;2.10;;;1.10;99.90;;;;;;4996077;28;20254;-63
2023/03/15 04:06:34;;;;;;;6.93;1.83;;;1.10;99.90;;;;;;4995750;28;20513;-62
2023/03/15 04:09:01;;;;;;;4.33;1.30;;;1.10;99.90;;;;;;4993428;28;20200;-63
2023/03/15 04:11:27;;;;;;;5.83;1.97;;;1.10;99.90;;;;;;4995045;28;20285;-63
2023/03/15 04:13:53;;;;;;;9.17;1.83;;;1.10;99.90;;;;;;4995879;28;20625;-63
2023/03/15 04:16:19;;;;;;;6.17;1.40;;;1.00;99.90;;;;;;4995372;28;20214;-63
2023/03/15 04:18:45;;;;;;;9.30;2.07;;;1.00;99.90;;;;;;4995558;28;20207;-63
2023/03/15 04:21:11;;;;;;;3.30;1.57;;;1.00;99.90;;;;;;4993825;28;20731;-63
2023/03/15 04:23:37;;;;;;;7.00;1.97;;;1.00;99.90;;;;;;4995382;28;20241;-63
2023/03/15 04:26:04;;;;;;;3.37;1.30;;;1.00;99.90;;;;;;4995549;28;20206;-63
2023/03/15 04:28:30;;;;;;;7.23;2.07;;;1.00;99.90;;;;;;4995183;28;20308;-63
2023/03/15 04:30:57;;;;;;;7.33;1.80;;;1.00;99.90;;;;;;4994617;28;20296;-63
2023/03/15 04:33:26;;;;;;;6.13;1.80;;;1.00;99.90;;;;;;4974443;28;20582;-63
2023/03/15 04:35:52;;;;;;;6.80;2.07;;;0.90;99.90;;;;;;4995528;28;20283;-63
2023/03/15 04:38:25;;;;;;;6.23;1.70;;;0.90;99.90;;;;;;4995602;28;20210;-63
2023/03/15 04:40:51;;;;;;;7.47;1.50;;;1.00;99.90;;;;;;4995291;28;20220;-63
2023/03/15 04:43:16;;;;;;;4.57;1.70;;;0.90;99.90;;;;;;4993395;28;20263;-65
2023/03/15 04:45:42;;;;;;;5.27;1.63;;;0.90;99.90;;;;;;4995012;28;20221;-63
2023/03/15 04:48:09;;;;;;;6.67;2.50;;;0.90;99.90;;;;;;4995194;28;20214;-64
2023/03/15 04:50:35;;;;;;;9.37;2.33;;;0.90;99.90;;;;;;4995196;28;20558;-63
2023/03/15 04:53:00;;;;;;;4.90;2.27;;;1.00;99.90;;;;;;4994796;28;20203;-62
2023/03/15 04:55:26;;;;;;;8.50;2.23;;;1.10;99.90;;;;;;4992613;28;20207;-63
2023/03/15 04:57:52;;;;;;;9.90;2.70;;;1.10;99.90;;;;;;4995225;28;20193;-63
2023/03/15 05:00:18;;;;;;;9.50;1.83;;;1.10;99.90;;;;;;4995342;28;20209;-63
2023/03/15 05:02:43;;;;;;;10.73;2.27;;;1.20;99.90;;;;;;4995263;28;20200;-63
2023/03/15 05:05:11;;;;;;;4.43;1.70;;;1.20;99.90;;;;;;4995284;28;20743;-62
2023/03/15 05:07:37;;;;;;;7.70;1.43;;;1.20;99.90;;;;;;4993774;28;20731;-62
2023/03/15 05:10:04;;;;;;;4.00;2.37;;;1.20;99.90;;;;;;4994848;28;20588;-62
2023/03/15 05:12:30;;;;;;;3.07;1.83;;;1.20;99.90;;;;;;4994859;28;20320;-62
2023/03/15 05:14:55;;;;;;;7.27;2.40;;;1.20;99.90;;;;;;4995079;28;20571;-62
2023/03/15 05:17:21;;;;;;;8.57;1.60;;;1.20;99.90;;;;;;4994568;28;20251;-62
2023/03/15 05:19:47;;;;;;;10.23;2.37;;;1.20;99.90;;;;;;4994606;28;20209;-62
2023/03/15 05:22:13;;;;;;;2.77;1.37;;;1.20;99.90;;;;;;4994406;28;20208;-62
2023/03/15 05:24:38;;;;;;;9.17;1.50;;;1.20;99.90;;;;;;4994783;28;20570;-62
2023/03/15 05:27:04;;;;;;;7.03;1.90;;;1.30;99.90;;;;;;4977445;28;20197;-62
2023/03/15 05:29:29;;;;;;;4.67;1.60;;;1.30;99.90;;;;;;4994920;28;20872;-62
2023/03/15 05:31:55;;;;;;;6.07;1.43;;;1.40;99.90;;;;;;4992637;28;20212;-63
2023/03/15 05:34:23;;;;;;;5.27;1.67;;;1.40;99.90;;;;;;4994519;28;20224;-63
2023/03/15 05:36:50;;;;;;;7.63;2.13;;;1.40;99.90;;;;;;4994447;28;20717;-63
2023/03/15 05:39:18;;;;;;;2.93;1.40;;;1.40;99.90;;;;;;4994464;28;20673;-63
2023/03/15 05:41:44;;;;;;;8.67;2.13;;;1.50;99.90;;;;;;4992268;28;20687;-63
2023/03/15 05:44:10;;;;;;;6.53;1.80;;;1.50;99.90;;;;;;4994338;28;20196;-64
2023/03/15 05:46:35;;;;;;;5.27;1.60;;;1.40;99.90;;;;;;4996376;28;20194;-64
2023/03/15 05:49:01;;;;;;;7.67;1.47;;;1.60;99.90;;;;;;4998053;28;20206;-64
2023/03/15 05:51:26;;;;;;;8.83;2.23;;;1.60;99.90;;;;;;4998043;28;20197;-64
2023/03/15 05:53:52;;;;;;;5.60;1.60;;;1.60;99.90;;;;;;4996721;28;20301;-65
2023/03/15 05:56:17;;;;;;;2.47;1.83;;;1.60;99.90;;;;;;4997974;28;20464;-64
2023/03/15 05:58:43;;;;;;;5.90;1.20;;;1.60;99.90;;;;;;4998325;28;20272;-64
2023/03/15 06:01:08;;;;;;;7.73;1.93;;;1.60;99.90;;;;;;4997867;28;20203;-64
2023/03/15 06:03:34;;;;;;;9.33;2.90;;;1.60;99.90;;;;;;4985255;28;20242;-64
2023/03/15 06:05:59;;;;;;;8.27;1.93;;;1.60;99.90;;;;;;4976486;28;20616;-64
2023/03/15 06:08:25;;;;;;;6.50;1.70;;;1.80;99.90;;;;;;4978809;28;20499;-65
2023/03/15 06:10:51;;;;;;;6.30;1.60;;;1.80;99.90;;;;;;4994372;28;20933;-63
2023/03/15 06:13:16;;;;;;;6.23;2.00;;;1.90;99.90;;;;;;4997705;28;20567;-63
2023/03/15 06:15:42;;;;;;;5.10;1.97;;;2.00;99.90;;;;;;4997314;28;20218;-62
2023/03/15 06:18:07;;;;;;;6.37;2.07;;;2.00;99.90;;;;;;4997673;28;20601;-63
2023/03/15 06:20:34;;;;;;;5.40;1.77;;;2.00;99.90;;;;;;4994770;28;20631;-63
2023/03/15 06:22:59;;;;;;;4.07;1.83;;;2.10;99.90;;;;;;4997365;28;20224;-63
2023/03/15 06:25:25;;;;;;;11.30;2.20;;;2.10;99.90;;;;;;4997370;28;20689;-62
2023/03/15 06:27:51;;;;;;;4.97;1.80;;;2.10;99.90;;;;;;4998233;28;20625;-63
2023/03/15 06:30:19;;;;;;;5.80;1.60;;;2.10;99.90;;;;;;4995511;28;20209;-63
2023/03/15 06:32:44;;;;;;;5.57;1.80;;;2.00;99.90;;;;;;4997252;28;20210;-62
2023/03/15 06:35:10;;;;;;;7.87;1.77;;;1.90;99.90;;;;;;4997373;28;20223;-62
2023/03/15 06:37:35;;;;;;;7.60;2.03;;;1.80;99.90;;;;;;4997249;28;20763;-64
2023/03/15 06:40:06;;;;;;;9.17;2.20;;;1.70;99.90;;;;;;4997474;28;20355;-63
2023/03/15 06:42:32;;;;;;;6.27;2.10;;;1.60;99.90;;;;;;4997583;28;20246;-63
2023/03/15 06:44:57;;;;;;;10.57;1.90;;;1.60;99.90;;;;;;4991290;28;20228;-62
2023/03/15 06:47:23;;;;;;;11.43;3.63;;;1.70;99.90;;;;;;4969584;28;20256;-62
2023/03/15 06:49:51;;;;;;;3.57;1.77;;;1.80;99.90;;;;;;4987514;28;20253;-65
2023/03/15 06:52:17;;;;;;;6.40;2.73;;;1.90;99.90;;;;;;4987393;28;20269;-64
2023/03/15 06:54:43;;;;;;;5.70;2.50;;;2.00;99.90;;;;;;4985331;28;20214;-63
2023/03/15 06:57:08;;;;;;;4.60;2.80;;;2.00;99.90;;;;;;4987076;28;20223;-62
2023/03/15 06:59:34;;;;;;;5.87;2.27;;;2.20;99.90;;;;;;4988149;28;20264;-64
2023/03/15 07:02:00;;;;;;;4.10;2.23;;;2.20;99.90;;;;;;4987961;28;20209;-62
2023/03/15 07:04:26;;;;;;;6.37;1.97;;;2.20;99.90;;;;;;4987487;28;20204;-63
2023/03/15 07:06:51;;;;;;;4.40;1.93;;;2.30;99.90;;;;;;4986934;28;20250;-65
2023/03/15 07:09:17;;;;;;;5.40;2.00;;;2.60;99.90;;;;;;4986665;28;20211;-63
2023/03/15 07:11:42;;;;;;;4.10;2.23;;;2.60;99.90;;;;;;4986485;28;20226;-64
2023/03/15 07:14:08;;;;;;;4.40;1.50;;;2.60;99.90;;;;;;4986809;28;20627;-64
2023/03/15 07:16:33;;;;;;;4.30;3.30;;;2.60;99.90;;;;;;4987525;28;20228;-63
2023/03/15 07:19:00;;;;;;;5.70;2.37;;;2.60;99.90;;;;;;4986853;28;20660;-63
2023/03/15 07:21:26;;;;;;;12.43;2.83;;;2.60;99.90;;;;;;4983425;28;20237;-68
2023/03/15 07:23:51;;;;;;;3.50;2.17;;;2.80;99.90;;;;;;4987643;28;20622;-69
2023/03/15 07:26:17;;;;;;;8.50;2.43;;;2.90;99.90;;;;;;4992148;28;20207;-69
2023/03/15 07:28:43;;;;;;;8.67;2.30;;;2.90;99.90;;;;;;4987084;28;20573;-69
2023/03/15 07:31:10;;;;;;;5.23;1.67;;;3.00;99.90;;;;;;4987824;28;20251;-69
2023/03/15 07:33:36;;;;;;;13.93;3.17;;;3.10;99.90;;;;;;4981599;28;20603;-70
2023/03/15 07:36:05;;;;;;;10.07;3.20;;;3.20;99.90;;;;;;4977762;28;20225;-70
2023/03/15 07:38:33;;;;;;;7.77;2.67;;;3.10;99.90;;;;;;4980975;28;20204;-69
2023/03/15 07:41:04;;;;;;;8.33;2.70;;;3.10;99.90;;;;;;4994225;28;20599;-72
2023/03/15 07:43:30;;;;;;;10.30;2.70;;;3.00;99.90;;;;;;4997296;28;20196;-72
2023/03/15 07:45:55;;;;;;;11.27;2.30;;;3.10;99.90;;;;;;4991043;28;20542;-71
2023/03/15 07:48:21;;;;;;;7.83;2.07;;;3.10;99.90;;;;;;4979871;28;20542;-70
2023/03/15 07:50:46;;;;;;;6.57;2.23;;;3.10;99.90;;;;;;4975916;28;20203;-71
2023/03/15 07:53:12;;;;;;;10.73;2.97;;;3.20;99.90;;;;;;4986793;28;20291;-72
2023/03/15 07:55:37;;;;;;;13.20;2.67;;;3.20;99.90;;;;;;4990827;28;20228;-76
2023/03/15 07:58:03;;;;;;;12.30;3.33;;;3.20;99.90;;;;;;4992380;28;20206;-73
2023/03/15 08:00:28;;;;;;;7.60;2.63;;;3.20;99.90;;;;;;4990239;28;20646;-74
2023/03/15 08:02:54;;;;;;;6.30;2.17;;;3.20;99.90;;;;;;4988903;28;20222;-73
2023/03/15 08:05:19;;;;;;;6.67;2.53;;;3.20;99.90;;;;;;4989057;28;20814;-71
2023/03/15 08:07:46;;;;;;;7.63;2.43;;;3.20;99.90;;;;;;4985415;28;20214;-71
2023/03/15 08:10:13;;;;;;;7.60;3.27;;;3.20;99.90;;;;;;4992535;28;20293;-75
2023/03/15 08:12:41;;;;;;;6.87;2.37;;;3.20;99.90;;;;;;4993428;28;20208;-77
2023/03/15 08:15:11;;;;;;;11.20;4.47;;;3.20;99.90;;;;;;4990672;28;20202;-81
2023/03/15 08:17:37;;;;;;;6.50;2.87;;;3.40;99.90;;;;;;4996361;28;20541;-67
2023/03/15 08:20:03;;;;;;;15.10;3.47;;;3.50;99.90;;;;;;4996563;28;20211;-67
2023/03/15 08:22:29;;;;;;;5.93;2.70;;;3.50;99.90;;;;;;4995915;28;20208;-68
2023/03/15 08:24:56;;;;;;;4.37;2.63;;;3.60;99.90;;;;;;4986873;28;20654;-67
2023/03/15 08:27:22;;;;;;;8.77;2.83;;;3.60;99.90;;;;;;4988666;28;20551;-67
2023/03/15 08:29:48;;;;;;;8.90;3.00;;;3.60;99.90;;;;;;4995814;28;20244;-66
2023/03/15 08:32:15;;;;;;;20.07;3.77;;;3.50;99.90;;;;;;4995224;28;20297;-67
2023/03/15 08:34:41;;;;;;;11.97;3.50;;;3.60;99.90;;;;;;4987192;28;20219;-68
2023/03/15 08:37:08;;;;;;;7.90;3.20;;;3.60;99.90;;;;;;4988697;28;20220;-68
2023/03/15 08:39:35;;;;;;;17.47;3.20;;;3.80;99.90;;;;;;4988006;28;20208;-66
2023/03/15 08:42:00;;;;;;;9.87;2.53;;;3.90;99.90;;;;;;4987933;28;20208;-66
2023/03/15 08:44:26;;;;;;;4.30;2.67;;;4.10;99.90;;;;;;4989665;28;20205;-66
2023/03/15 08:46:51;;;;;;;5.23;2.30;;;4.10;99.90;;;;;;4988801;28;20200;-66
2023/03/15 08:49:16;;;;;;;5.90;2.53;;;3.80;99.90;;;;;;4988236;28;20565;-66
2023/03/15 08:51:42;;;;;;;6.60;2.77;;;3.90;99.90;;;;;;4987767;28;20232;-67
2023/03/15 08:54:07;;;;;;;4.00;2.77;;;3.90;99.90;;;;;;4986413;28;20668;-66
2023/03/15 08:56:33;;;;;;;5.47;2.70;;;4.00;99.90;;;;;;4986220;28;20226;-67
2023/03/15 08:58:59;;;;;;;5.90;2.20;;;4.10;99.90;;;;;;4980025;28;20542;-67
2023/03/15 09:01:24;;;;;;;6.80;2.43;;;4.40;99.90;;;;;;4976913;28;21021;-67
2023/03/15 09:03:50;;;;;;;5.63;3.53;;;4.40;99.90;;;;;;4976704;28;20235;-66
2023/03/15 09:06:15;;;;;;;10.00;2.77;;;4.40;99.90;;;;;;4980475;28;20200;-66
2023/03/15 09:08:41;;;;;;;4.23;2.40;;;4.30;99.90;;;;;;4981026;28;20231;-65
2023/03/15 09:11:06;;;;;;;4.97;2.40;;;4.00;99.90;;;;;;4979004;28;20200;-71
2023/03/15 09:13:32;;;;;;;15.83;3.53;;;3.90;99.90;;;;;;4980736;28;20200;-65
2023/03/15 09:15:58;;;;;;;6.33;2.50;;;4.10;99.90;;;;;;4976082;28;20231;-67
2023/03/15 09:18:24;;;;;;;3.20;2.50;;;4.10;99.90;;;;;;4986879;28;20228;-67
2023/03/15 09:20:50;;;;;;;5.40;2.30;;;3.90;99.90;;;;;;4984751;28;20707;-75
2023/03/15 09:23:16;;;;;;;7.13;2.50;;;3.70;99.90;;;;;;4982475;28;20295;-73
2023/03/15 09:25:41;;;;;;;5.53;3.43;;;3.80;99.90;;;;;;4990395;28;20287;-75
2023/03/15 09:28:10;;;;;;;6.87;2.97;;;3.90;99.90;;;;;;4987659;28;20663;-74
2023/03/15 09:30:37;;;;;;;4.00;2.10;;;4.10;99.90;;;;;;4991685;28;20216;-74
2023/03/15 09:33:03;;;;;;;3.43;2.00;;;4.20;99.90;;;;;;4991508;28;20476;-74
2023/03/15 09:35:29;;;;;;;3.10;2.47;;;4.30;99.90;;;;;;4987650;28;20752;-77
2023/03/15 09:37:54;;;;;;;3.23;1.83;;;4.30;99.90;;;;;;4994990;28;20204;-75
2023/03/15 09:40:19;;;;;;;6.23;2.10;;;4.40;99.90;;;;;;4989194;28;20251;-73
2023/03/15 09:42:58;;;;;;;2.77;2.10;;;4.50;99.90;;;;;;4986567;28;20234;-74
2023/03/15 09:45:52;;;;;;;8.70;2.57;;;4.50;99.90;;;;;;4995366;28;20201;-74
2023/03/15 09:48:31;;;;;;;5.97;2.77;;;4.70;99.90;;;;;;4992589;28;20204;-76
2023/03/15 09:51:03;;;;;;;7.53;2.93;;;5.00;99.90;;;;;;4990188;28;20196;-73
2023/03/15 09:53:40;;;;;;;4.77;2.60;;;5.00;99.90;;;;;;4990234;28;20220;-72
2023/03/15 09:56:24;;;;;;;4.50;2.40;;;4.90;99.90;;;;;;4982800;28;20589;-72
2023/03/15 09:58:52;;;;;;;2.93;2.47;;;4.90;99.90;;;;;;4973802;28;20736;-68
2023/03/15 10:01:30;;;;;;;3.13;2.03;;;4.80;99.90;;;;;;4994968;28;20223;-65
2023/03/15 10:03:56;;;;;;;5.07;2.50;;;4.70;99.90;;;;;;4991775;28;20215;-65
2023/03/15 10:06:34;;;;;;;9.70;2.70;;;4.50;99.90;;;;;;4987840;28;20204;-68
2023/03/15 10:09:05;;;;;;;5.07;2.60;;;4.70;99.90;;;;;;4986402;28;20207;-64
2023/03/15 10:11:48;;;;;;;5.50;2.47;;;4.80;99.90;;;;;;4989127;28;20224;-70
2023/03/15 10:14:25;;;;;;;5.37;2.97;;;5.10;99.90;;;;;;4994342;28;20201;-64
2023/03/15 10:16:51;;;;;;;6.17;2.60;;;5.10;99.90;;;;;;4992726;28;20543;-63
2023/03/15 10:19:35;;;;;;;7.70;2.30;;;5.20;99.90;;;;;;4989624;28;20204;-65
2023/03/15 10:22:13;;;;;;;6.10;2.57;;;5.20;99.90;;;;;;4994963;28;20195;-66
2023/03/15 10:24:49;;;;;;;3.77;2.43;;;5.30;99.90;;;;;;4992593;28;20266;-67
2023/03/15 10:27:21;;;;;;;3.13;1.80;;;5.40;99.90;;;;;;4985479;28;20248;-65
2023/03/15 10:29:53;;;;;;;6.53;2.43;;;5.70;99.90;;;;;;4989628;28;20212;-71
2023/03/15 10:32:23;;;;;;;7.33;2.73;;;5.90;99.90;;;;;;4978795;28;20204;-70
2023/03/15 10:34:51;;;;;;;6.17;2.40;;;5.60;99.90;;;;;;4986197;28;20232;-70
2023/03/15 10:37:18;;;;;;;9.90;2.87;;;5.40;99.90;;;;;;4987582;28;20215;-71
2023/03/15 10:39:48;;;;;;;4.83;2.33;;;5.30;99.90;;;;;;4987906;28;20204;-71
2023/03/15 10:42:31;;;;;;;4.40;2.57;;;5.30;99.90;;;;;;4990570;28;20203;-71
2023/03/15 10:44:59;;;;;;;4.13;2.20;;;5.20;99.90;;;;;;4990706;28;20207;-70
2023/03/15 10:47:25;;;;;;;8.00;2.23;;;4.90;99.90;;;;;;4988693;28;20215;-73
2023/03/15 10:49:56;;;;;;;5.93;2.03;;;4.80;99.90;;;;;;4985426;28;20984;-71
2023/03/15 10:52:35;;;;;;;5.50;2.40;;;4.70;99.90;;;;;;4987936;28;20290;-70
2023/03/15 10:55:13;;;;;;;3.50;1.67;;;4.80;99.90;;;;;;4988060;28;20567;-73
2023/03/15 10:57:50;;;;;;;4.07;2.27;;;4.70;99.90;;;;;;4987195;28;20212;-71
2023/03/15 11:00:22;;;;;;;8.87;1.77;;;4.50;99.90;;;;;;4989480;28;20208;-81
2023/03/15 11:03:02;;;;;;;5.57;2.00;;;5.00;99.90;;;;;;4987966;28;20568;-80
2023/03/15 11:05:46;;;;;;;4.07;2.10;;;5.60;99.90;;;;;;4987264;28;20404;-71
2023/03/15 11:08:20;;;;;;;2.40;1.70;;;5.60;99.90;;;;;;4987436;28;20611;-73
2023/03/15 11:10:55;;;;;;;3.87;1.83;;;5.60;99.90;;;;;;4983176;28;20314;-69
2023/03/15 11:13:31;;;;;;;7.20;2.00;;;5.80;99.90;;;;;;4983867;28;20204;-70
2023/03/15 11:16:08;;;;;;;4.07;1.73;;;6.10;99.90;;;;;;4989250;28;20444;-69
2023/03/15 11:18:44;;;;;;;6.43;2.70;;;6.50;99.90;;;;;;4985911;28;20236;-73
2023/03/15 11:21:13;;;;;;;7.20;2.00;;;6.80;99.90;;;;;;4985643;28;20226;-78
2023/03/15 11:23:42;;;;;;;2.63;1.70;;;7.00;99.90;;;;;;4990704;28;20319;-78
2023/03/15 11:26:17;;;;;;;3.73;1.47;;;7.00;98.20;;;;;;4989291;28;20207;-72
2023/03/15 11:28:48;;;;;;;6.10;1.70;;;6.30;99.10;;;;;;4985844;28;20211;-70
2023/03/15 11:31:14;;;;;;;4.43;1.90;;;6.30;99.90;;;;;;4990791;28;20204;-71
2023/03/15 11:34:12;;;;;;;4.83;1.43;;;7.10;99.90;;;;;;4990026;28;20230;-67
2023/03/15 11:36:42;;;;;;;4.50;1.60;;;7.80;97.50;;;;;;4991648;28;20232;-70
2023/03/15 11:39:13;;;;;;;4.73;2.07;;;7.90;97.50;;;;;;4987794;28;20243;-71
2023/03/15 11:41:45;;;;;;;5.03;1.93;;;7.90;97.80;;;;;;4992478;28;20236;-73
2023/03/15 11:44:32;;;;;;;3.87;1.47;;;7.60;97.80;;;;;;4993597;28;20510;-71
2023/03/15 11:47:23;;;;;;;6.00;1.90;;;7.10;96.20;;;;;;4993077;28;20216;-73
2023/03/15 11:49:52;;;;;;;3.73;1.70;;;6.20;98.10;;;;;;4995457;28;20200;-74
2023/03/15 11:52:22;;;;;;;2.60;1.33;;;5.90;99.00;;;;;;4993144;28;20200;-69
2023/03/15 11:54:48;;;;;;;6.30;3.50;;;5.90;98.80;;;;;;4992180;28;20200;-69
2023/03/15 11:57:29;;;;;;;5.60;2.50;;;6.30;99.00;;;;;;4993988;28;20212;-77
2023/03/15 11:59:56;;;;;;;11.87;3.53;;;6.80;98.00;;;;;;4986356;28;20192;-69
2023/03/15 12:02:21;;;;;;;1.50;1.40;;;7.00;98.20;;;;;;4985380;28;20196;-72
2023/03/15 12:04:49;;;;;;;8.10;4.37;;;7.10;97.30;;;;;;4986576;28;20235;-67
2023/03/15 12:07:21;;;;;;;6.73;2.33;;;7.20;97.10;;;;;;4983269;28;20235;-69
2023/03/15 12:09:51;;;;;;;3.30;2.63;;;7.40;97.10;;;;;;4992721;28;20219;-68
2023/03/15 12:12:25;;;;;;;5.00;1.40;;;7.60;95.90;;;;;;4995537;28;20274;-68
2023/03/15 12:15:27;;;;;;;8.30;4.67;;;8.10;96.40;;;;;;4994951;28;20241;-69
2023/03/15 12:17:57;;;;;;;5.87;2.93;;;8.50;94.90;;;;;;4979411;28;20303;-70
2023/03/15 12:20:38;;;;;;;1.30;1.20;;;8.60;93.30;;;;;;4984504;28;20231;-69
2023/03/15 12:23:15;;;;;;;4.03;2.17;;;8.60;94.10;;;;;;4984648;28;20256;-70
2023/03/15 12:25:54;;;;;;;5.60;2.13;;;9.00;93.20;;;;;;4984746;28;20204;-70
2023/03/15 12:28:22;;;;;;;4.17;1.63;;;9.50;93.50;;;;;;4989313;28;20300;-69
2023/03/15 12:30:55;;;;;;;7.50;4.67;;;9.80;92.90;;;;;;4984866;28;20211;-69
2023/03/15 12:33:22;;;;;;;6.40;4.00;;;9.70;90.50;;;;;;4987281;28;20229;-68
2023/03/15 12:35:48;;;;;;;12.50;6.10;;;9.20;91.10;;;;;;4985058;28;20244;-74
2023/03/15 12:38:22;;;;;;;5.73;2.00;;;8.50;92.40;;;;;;4978928;28;20201;-75
2023/03/15 12:40:52;;;;;;;4.63;2.17;;;8.70;89.00;;;;;;4987611;28;20283;-75
2023/03/15 12:43:41;;;;;;;8.17;2.13;;;8.70;90.20;;;;;;4986020;28;20201;-76
2023/03/15 12:46:40;;;;;;;4.27;1.70;;;9.10;90.00;;;;;;4986743;28;20547;-75
2023/03/15 12:49:25;;;;;;;4.17;1.97;;;10.20;90.30;;;;;;4984889;28;20221;-74
2023/03/15 12:52:12;;;;;;;4.03;1.73;;;11.50;83.00;;;;;;4968479;28;20212;-76
2023/03/15 12:54:49;;;;;;;1.33;1.20;;;11.30;74.10;;;;;;4966362;28;20725;-75
2023/03/15 12:57:23;;;;;;;2.90;1.30;;;10.70;77.10;;;;;;4984866;28;20461;-75
2023/03/15 12:59:57;;;;;;;4.17;1.83;;;10.10;77.00;;;;;;4985605;28;20209;-75
2023/03/15 13:02:47;;;;;;;4.63;1.40;;;9.80;81.20;;;;;;4985347;28;20676;-75